sensor_id;sensor_type;location;lat;lon;timestamp;P1;durP1;ratioP1;P2;durP2;ratioP2
72284;SDS011;60220;53.552;10.092;2023-04-15T00:02:14;6.93;;;4.22;;
72284;SDS011;60220;53.552;10.092;2023-04-15T00:04:44;6.30;;;3.70;;
72284;SDS011;60220;53.552;10.092;2023-04-15T00:07:12;6.38;;;4.28;;
72284;SDS011;60220;53.552;10.092;2023-04-15T00:09:40;8.23;;;4.18;;
72284;SDS011;60220;53.552;10.092;2023-04-15T00:12:07;8.27;;;4.43;;
72284;SDS011;60220;53.552;10.092;2023-04-15T00:14:34;6.05;;;4.18;;
72284;SDS011;60220;53.552;10.092;2023-04-15T00:17:01;6.13;;;4.20;;
72284;SDS011;60220;53.552;10.092;2023-04-15T00:19:30;6.18;;;4.20;;
72284;SDS011;60220;53.552;10.092;2023-04-15T00:21:58;7.03;;;4.57;;
72284;SDS011;60220;53.552;10.092;2023-04-15T00:24:28;6.30;;;4.20;;
72284;SDS011;60220;53.552;10.092;2023-04-15T00:26:55;6.32;;;4.32;;
72284;SDS011;60220;53.552;10.092;2023-04-15T00:29:22;5.88;;;4.28;;
72284;SDS011;60220;53.552;10.092;2023-04-15T00:31:48;8.85;;;5.00;;
72284;SDS011;60220;53.552;10.092;2023-04-15T00:34:15;5.60;;;4.70;;
72284;SDS011;60220;53.552;10.092;2023-04-15T00:36:42;5.53;;;4.15;;
72284;SDS011;60220;53.552;10.092;2023-04-15T00:39:09;7.90;;;5.03;;
72284;SDS011;60220;53.552;10.092;2023-04-15T00:41:37;5.43;;;4.72;;
72284;SDS011;60220;53.552;10.092;2023-04-15T00:44:05;7.50;;;5.07;;
72284;SDS011;60220;53.552;10.092;2023-04-15T00:46:32;6.22;;;5.03;;
72284;SDS011;60220;53.552;10.092;2023-04-15T00:49:01;8.27;;;5.10;;
72284;SDS011;60220;53.552;10.092;2023-04-15T00:51:29;7.88;;;5.25;;
72284;SDS011;60220;53.552;10.092;2023-04-15T00:54:00;8.70;;;5.55;;
72284;SDS011;60220;53.552;10.092;2023-04-15T00:56:29;9.32;;;6.68;;
72284;SDS011;60220;53.552;10.092;2023-04-15T00:58:58;9.65;;;6.03;;
72284;SDS011;60220;53.552;10.092;2023-04-15T01:01:25;9.48;;;6.40;;
72284;SDS011;60220;53.552;10.092;2023-04-15T01:03:53;8.18;;;5.53;;
72284;SDS011;60220;53.552;10.092;2023-04-15T01:06:21;10.52;;;6.03;;
72284;SDS011;60220;53.552;10.092;2023-04-15T01:08:48;8.48;;;5.65;;
72284;SDS011;60220;53.552;10.092;2023-04-15T01:11:15;9.35;;;5.85;;
72284;SDS011;60220;53.552;10.092;2023-04-15T01:13:42;9.07;;;6.25;;
72284;SDS011;60220;53.552;10.092;2023-04-15T01:16:11;9.38;;;5.88;;
72284;SDS011;60220;53.552;10.092;2023-04-15T01:18:40;8.93;;;5.50;;
72284;SDS011;60220;53.552;10.092;2023-04-15T01:21:09;9.07;;;5.97;;
72284;SDS011;60220;53.552;10.092;2023-04-15T01:23:37;9.55;;;6.00;;
72284;SDS011;60220;53.552;10.092;2023-04-15T01:26:08;9.90;;;6.43;;
72284;SDS011;60220;53.552;10.092;2023-04-15T01:28:35;8.52;;;6.07;;
72284;SDS011;60220;53.552;10.092;2023-04-15T01:31:06;10.20;;;5.88;;
72284;SDS011;60220;53.552;10.092;2023-04-15T01:33:34;8.43;;;6.15;;
72284;SDS011;60220;53.552;10.092;2023-04-15T01:36:03;8.73;;;6.38;;
72284;SDS011;60220;53.552;10.092;2023-04-15T01:38:31;8.93;;;5.55;;
72284;SDS011;60220;53.552;10.092;2023-04-15T01:40:58;9.25;;;6.60;;
72284;SDS011;60220;53.552;10.092;2023-04-15T01:43:27;8.32;;;5.97;;
72284;SDS011;60220;53.552;10.092;2023-04-15T01:45:53;10.15;;;6.32;;
72284;SDS011;60220;53.552;10.092;2023-04-15T01:48:21;11.18;;;6.72;;
72284;SDS011;60220;53.552;10.092;2023-04-15T01:50:48;8.63;;;6.20;;
72284;SDS011;60220;53.552;10.092;2023-04-15T01:53:15;9.85;;;6.32;;
72284;SDS011;60220;53.552;10.092;2023-04-15T01:55:42;9.18;;;6.13;;
72284;SDS011;60220;53.552;10.092;2023-04-15T01:58:08;9.38;;;6.28;;
72284;SDS011;60220;53.552;10.092;2023-04-15T02:00:36;11.02;;;6.72;;
72284;SDS011;60220;53.552;10.092;2023-04-15T02:03:03;12.52;;;7.25;;
72284;SDS011;60220;53.552;10.092;2023-04-15T02:05:30;11.25;;;6.80;;
72284;SDS011;60220;53.552;10.092;2023-04-15T02:07:57;13.38;;;6.88;;
72284;SDS011;60220;53.552;10.092;2023-04-15T02:10:24;9.35;;;6.43;;
72284;SDS011;60220;53.552;10.092;2023-04-15T02:12:53;12.05;;;7.00;;
72284;SDS011;60220;53.552;10.092;2023-04-15T02:15:20;12.63;;;7.53;;
72284;SDS011;60220;53.552;10.092;2023-04-15T02:17:48;10.15;;;6.88;;
72284;SDS011;60220;53.552;10.092;2023-04-15T02:20:17;9.77;;;7.07;;
72284;SDS011;60220;53.552;10.092;2023-04-15T02:22:45;12.25;;;7.97;;
72284;SDS011;60220;53.552;10.092;2023-04-15T02:25:14;13.00;;;7.60;;
72284;SDS011;60220;53.552;10.092;2023-04-15T02:27:44;15.45;;;7.90;;
72284;SDS011;60220;53.552;10.092;2023-04-15T02:30:11;14.63;;;7.65;;
72284;SDS011;60220;53.552;10.092;2023-04-15T02:32:39;11.15;;;7.57;;
72284;SDS011;60220;53.552;10.092;2023-04-15T02:35:10;12.48;;;7.32;;
72284;SDS011;60220;53.552;10.092;2023-04-15T02:37:39;13.23;;;7.60;;
72284;SDS011;60220;53.552;10.092;2023-04-15T02:40:08;12.45;;;7.05;;
72284;SDS011;60220;53.552;10.092;2023-04-15T02:42:40;14.10;;;8.27;;
72284;SDS011;60220;53.552;10.092;2023-04-15T02:45:10;15.95;;;8.82;;
72284;SDS011;60220;53.552;10.092;2023-04-15T02:47:40;13.43;;;8.75;;
72284;SDS011;60220;53.552;10.092;2023-04-15T02:50:11;12.82;;;7.40;;
72284;SDS011;60220;53.552;10.092;2023-04-15T02:52:39;15.88;;;8.63;;
72284;SDS011;60220;53.552;10.092;2023-04-15T02:55:08;18.58;;;9.68;;
72284;SDS011;60220;53.552;10.092;2023-04-15T02:57:35;15.40;;;8.60;;
72284;SDS011;60220;53.552;10.092;2023-04-15T03:00:03;15.85;;;8.93;;
72284;SDS011;60220;53.552;10.092;2023-04-15T03:02:33;14.68;;;9.20;;
72284;SDS011;60220;53.552;10.092;2023-04-15T03:05:00;17.40;;;9.65;;
72284;SDS011;60220;53.552;10.092;2023-04-15T03:07:29;17.25;;;9.70;;
72284;SDS011;60220;53.552;10.092;2023-04-15T03:09:56;16.58;;;8.80;;
72284;SDS011;60220;53.552;10.092;2023-04-15T03:12:24;17.73;;;9.52;;
72284;SDS011;60220;53.552;10.092;2023-04-15T03:14:50;17.27;;;9.43;;
72284;SDS011;60220;53.552;10.092;2023-04-15T03:17:17;19.02;;;10.65;;
72284;SDS011;60220;53.552;10.092;2023-04-15T03:19:44;17.52;;;10.10;;
72284;SDS011;60220;53.552;10.092;2023-04-15T03:22:11;17.15;;;9.90;;
72284;SDS011;60220;53.552;10.092;2023-04-15T03:24:41;17.88;;;10.60;;
72284;SDS011;60220;53.552;10.092;2023-04-15T03:27:10;22.20;;;11.32;;
72284;SDS011;60220;53.552;10.092;2023-04-15T03:29:37;21.90;;;10.93;;
72284;SDS011;60220;53.552;10.092;2023-04-15T03:32:06;19.77;;;11.02;;
72284;SDS011;60220;53.552;10.092;2023-04-15T03:34:33;18.05;;;9.90;;
72284;SDS011;60220;53.552;10.092;2023-04-15T03:36:59;23.25;;;12.38;;
72284;SDS011;60220;53.552;10.092;2023-04-15T03:39:26;23.73;;;12.02;;
72284;SDS011;60220;53.552;10.092;2023-04-15T03:41:54;22.85;;;11.55;;
72284;SDS011;60220;53.552;10.092;2023-04-15T03:44:22;22.85;;;12.07;;
72284;SDS011;60220;53.552;10.092;2023-04-15T03:46:48;22.58;;;11.27;;
72284;SDS011;60220;53.552;10.092;2023-04-15T03:49:15;24.00;;;12.45;;
72284;SDS011;60220;53.552;10.092;2023-04-15T03:51:45;24.20;;;11.75;;
72284;SDS011;60220;53.552;10.092;2023-04-15T03:54:12;21.08;;;11.15;;
72284;SDS011;60220;53.552;10.092;2023-04-15T03:56:39;21.85;;;11.77;;
72284;SDS011;60220;53.552;10.092;2023-04-15T03:59:07;21.52;;;12.02;;
72284;SDS011;60220;53.552;10.092;2023-04-15T04:01:34;23.55;;;12.77;;
72284;SDS011;60220;53.552;10.092;2023-04-15T04:04:01;23.42;;;12.27;;
72284;SDS011;60220;53.552;10.092;2023-04-15T04:06:27;25.38;;;12.93;;
72284;SDS011;60220;53.552;10.092;2023-04-15T04:08:55;25.65;;;13.50;;
72284;SDS011;60220;53.552;10.092;2023-04-15T04:11:21;22.70;;;11.88;;
72284;SDS011;60220;53.552;10.092;2023-04-15T04:13:48;24.65;;;12.20;;
72284;SDS011;60220;53.552;10.092;2023-04-15T04:16:18;30.52;;;13.65;;
72284;SDS011;60220;53.552;10.092;2023-04-15T04:18:45;28.40;;;14.52;;
72284;SDS011;60220;53.552;10.092;2023-04-15T04:21:12;27.85;;;12.82;;
72284;SDS011;60220;53.552;10.092;2023-04-15T04:23:39;27.92;;;14.68;;
72284;SDS011;60220;53.552;10.092;2023-04-15T04:26:05;29.70;;;14.60;;
72284;SDS011;60220;53.552;10.092;2023-04-15T04:28:32;31.13;;;15.48;;
72284;SDS011;60220;53.552;10.092;2023-04-15T04:31:01;35.35;;;15.98;;
72284;SDS011;60220;53.552;10.092;2023-04-15T04:33:29;31.65;;;14.77;;
72284;SDS011;60220;53.552;10.092;2023-04-15T04:35:56;32.50;;;15.25;;
72284;SDS011;60220;53.552;10.092;2023-04-15T04:38:22;34.80;;;16.83;;
72284;SDS011;60220;53.552;10.092;2023-04-15T04:40:49;37.72;;;17.73;;
72284;SDS011;60220;53.552;10.092;2023-04-15T04:43:16;38.25;;;16.85;;
72284;SDS011;60220;53.552;10.092;2023-04-15T04:45:43;34.58;;;17.30;;
72284;SDS011;60220;53.552;10.092;2023-04-15T04:48:12;37.65;;;17.27;;
72284;SDS011;60220;53.552;10.092;2023-04-15T04:50:40;41.60;;;17.20;;
72284;SDS011;60220;53.552;10.092;2023-04-15T04:53:07;41.70;;;19.55;;
72284;SDS011;60220;53.552;10.092;2023-04-15T04:55:34;46.28;;;22.10;;
72284;SDS011;60220;53.552;10.092;2023-04-15T04:58:01;46.38;;;20.55;;
72284;SDS011;60220;53.552;10.092;2023-04-15T05:00:28;52.75;;;24.73;;
72284;SDS011;60220;53.552;10.092;2023-04-15T05:02:55;48.15;;;21.42;;
72284;SDS011;60220;53.552;10.092;2023-04-15T05:05:21;51.05;;;23.10;;
72284;SDS011;60220;53.552;10.092;2023-04-15T05:07:49;44.05;;;20.60;;
72284;SDS011;60220;53.552;10.092;2023-04-15T05:10:19;50.90;;;22.65;;
72284;SDS011;60220;53.552;10.092;2023-04-15T05:12:49;54.10;;;27.13;;
72284;SDS011;60220;53.552;10.092;2023-04-15T05:15:18;48.90;;;22.40;;
72284;SDS011;60220;53.552;10.092;2023-04-15T05:17:45;45.78;;;20.80;;
72284;SDS011;60220;53.552;10.092;2023-04-15T05:20:12;51.50;;;22.70;;
72284;SDS011;60220;53.552;10.092;2023-04-15T05:22:38;56.05;;;24.20;;
72284;SDS011;60220;53.552;10.092;2023-04-15T05:25:07;52.90;;;23.00;;
72284;SDS011;60220;53.552;10.092;2023-04-15T05:27:34;47.38;;;22.83;;
72284;SDS011;60220;53.552;10.092;2023-04-15T05:30:01;41.58;;;20.85;;
72284;SDS011;60220;53.552;10.092;2023-04-15T05:32:28;45.70;;;21.88;;
72284;SDS011;60220;53.552;10.092;2023-04-15T05:34:54;46.90;;;23.17;;
72284;SDS011;60220;53.552;10.092;2023-04-15T05:37:21;54.30;;;24.48;;
72284;SDS011;60220;53.552;10.092;2023-04-15T05:39:48;49.35;;;22.42;;
72284;SDS011;60220;53.552;10.092;2023-04-15T05:42:16;48.65;;;23.60;;
72284;SDS011;60220;53.552;10.092;2023-04-15T05:44:42;54.75;;;24.48;;
72284;SDS011;60220;53.552;10.092;2023-04-15T05:47:09;49.03;;;23.25;;
72284;SDS011;60220;53.552;10.092;2023-04-15T05:49:37;48.80;;;24.08;;
72284;SDS011;60220;53.552;10.092;2023-04-15T05:52:04;54.10;;;25.08;;
72284;SDS011;60220;53.552;10.092;2023-04-15T05:54:33;57.53;;;26.45;;
72284;SDS011;60220;53.552;10.092;2023-04-15T05:57:00;59.15;;;25.02;;
72284;SDS011;60220;53.552;10.092;2023-04-15T05:59:30;52.30;;;24.52;;
72284;SDS011;60220;53.552;10.092;2023-04-15T06:01:57;59.63;;;26.77;;
72284;SDS011;60220;53.552;10.092;2023-04-15T06:04:23;61.60;;;26.50;;
72284;SDS011;60220;53.552;10.092;2023-04-15T06:06:50;64.00;;;26.65;;
72284;SDS011;60220;53.552;10.092;2023-04-15T06:09:17;52.70;;;25.10;;
72284;SDS011;60220;53.552;10.092;2023-04-15T06:11:44;57.95;;;26.58;;
72284;SDS011;60220;53.552;10.092;2023-04-15T06:14:10;59.25;;;27.58;;
72284;SDS011;60220;53.552;10.092;2023-04-15T06:16:41;58.63;;;26.27;;
72284;SDS011;60220;53.552;10.092;2023-04-15T06:19:08;63.28;;;27.77;;
72284;SDS011;60220;53.552;10.092;2023-04-15T06:21:34;64.07;;;28.70;;
72284;SDS011;60220;53.552;10.092;2023-04-15T06:24:04;67.07;;;31.52;;
72284;SDS011;60220;53.552;10.092;2023-04-15T06:26:30;62.63;;;26.48;;
72284;SDS011;60220;53.552;10.092;2023-04-15T06:28:57;67.78;;;28.50;;
72284;SDS011;60220;53.552;10.092;2023-04-15T06:31:24;68.32;;;29.40;;
72284;SDS011;60220;53.552;10.092;2023-04-15T06:33:52;65.32;;;27.45;;
72284;SDS011;60220;53.552;10.092;2023-04-15T06:36:18;65.55;;;29.40;;
72284;SDS011;60220;53.552;10.092;2023-04-15T06:38:46;70.55;;;28.15;;
72284;SDS011;60220;53.552;10.092;2023-04-15T06:41:13;66.20;;;27.35;;
72284;SDS011;60220;53.552;10.092;2023-04-15T06:43:39;68.30;;;28.48;;
72284;SDS011;60220;53.552;10.092;2023-04-15T06:46:08;64.82;;;28.05;;
72284;SDS011;60220;53.552;10.092;2023-04-15T06:48:36;63.92;;;28.95;;
72284;SDS011;60220;53.552;10.092;2023-04-15T06:51:04;67.05;;;27.25;;
72284;SDS011;60220;53.552;10.092;2023-04-15T06:53:31;65.00;;;26.55;;
72284;SDS011;60220;53.552;10.092;2023-04-15T06:56:00;63.28;;;27.67;;
72284;SDS011;60220;53.552;10.092;2023-04-15T06:58:27;68.88;;;30.17;;
72284;SDS011;60220;53.552;10.092;2023-04-15T07:00:55;69.72;;;28.88;;
72284;SDS011;60220;53.552;10.092;2023-04-15T07:03:22;68.18;;;29.33;;
72284;SDS011;60220;53.552;10.092;2023-04-15T07:05:49;70.28;;;29.55;;
72284;SDS011;60220;53.552;10.092;2023-04-15T07:08:18;67.85;;;29.25;;
72284;SDS011;60220;53.552;10.092;2023-04-15T07:10:45;67.85;;;30.15;;
72284;SDS011;60220;53.552;10.092;2023-04-15T07:13:14;69.43;;;29.60;;
72284;SDS011;60220;53.552;10.092;2023-04-15T07:15:41;57.10;;;27.35;;
72284;SDS011;60220;53.552;10.092;2023-04-15T07:18:08;67.18;;;29.20;;
72284;SDS011;60220;53.552;10.092;2023-04-15T07:20:34;63.85;;;28.85;;
72284;SDS011;60220;53.552;10.092;2023-04-15T07:23:01;63.80;;;30.65;;
72284;SDS011;60220;53.552;10.092;2023-04-15T07:25:29;63.55;;;30.70;;
72284;SDS011;60220;53.552;10.092;2023-04-15T07:27:58;65.25;;;29.15;;
72284;SDS011;60220;53.552;10.092;2023-04-15T07:30:26;66.97;;;31.35;;
72284;SDS011;60220;53.552;10.092;2023-04-15T07:32:53;66.03;;;30.52;;
72284;SDS011;60220;53.552;10.092;2023-04-15T07:35:20;64.85;;;30.55;;
72284;SDS011;60220;53.552;10.092;2023-04-15T07:37:47;66.65;;;29.58;;
72284;SDS011;60220;53.552;10.092;2023-04-15T07:40:14;67.22;;;30.83;;
72284;SDS011;60220;53.552;10.092;2023-04-15T07:42:44;72.78;;;32.03;;
72284;SDS011;60220;53.552;10.092;2023-04-15T07:45:13;77.88;;;32.30;;
72284;SDS011;60220;53.552;10.092;2023-04-15T07:47:40;73.18;;;33.47;;
72284;SDS011;60220;53.552;10.092;2023-04-15T07:50:07;68.88;;;34.13;;
72284;SDS011;60220;53.552;10.092;2023-04-15T07:52:35;78.95;;;34.58;;
72284;SDS011;60220;53.552;10.092;2023-04-15T07:55:04;71.28;;;32.95;;
72284;SDS011;60220;53.552;10.092;2023-04-15T07:57:31;69.53;;;31.85;;
72284;SDS011;60220;53.552;10.092;2023-04-15T07:59:59;70.57;;;30.85;;
72284;SDS011;60220;53.552;10.092;2023-04-15T08:02:30;70.15;;;31.73;;
72284;SDS011;60220;53.552;10.092;2023-04-15T08:04:58;65.35;;;32.33;;
72284;SDS011;60220;53.552;10.092;2023-04-15T08:07:27;66.10;;;33.33;;
72284;SDS011;60220;53.552;10.092;2023-04-15T08:09:53;69.53;;;30.88;;
72284;SDS011;60220;53.552;10.092;2023-04-15T08:12:22;67.43;;;30.98;;
72284;SDS011;60220;53.552;10.092;2023-04-15T08:14:50;68.63;;;31.02;;
72284;SDS011;60220;53.552;10.092;2023-04-15T08:17:18;67.82;;;31.67;;
72284;SDS011;60220;53.552;10.092;2023-04-15T08:19:47;75.38;;;33.30;;
72284;SDS011;60220;53.552;10.092;2023-04-15T08:22:14;66.95;;;30.40;;
72284;SDS011;60220;53.552;10.092;2023-04-15T08:24:41;65.45;;;30.38;;
72284;SDS011;60220;53.552;10.092;2023-04-15T08:27:07;68.22;;;32.10;;
72284;SDS011;60220;53.552;10.092;2023-04-15T08:29:34;63.13;;;30.33;;
72284;SDS011;60220;53.552;10.092;2023-04-15T08:32:01;69.50;;;32.47;;
72284;SDS011;60220;53.552;10.092;2023-04-15T08:34:29;66.65;;;31.42;;
72284;SDS011;60220;53.552;10.092;2023-04-15T08:36:58;79.43;;;36.38;;
72284;SDS011;60220;53.552;10.092;2023-04-15T08:39:25;65.68;;;32.22;;
72284;SDS011;60220;53.552;10.092;2023-04-15T08:41:54;65.30;;;32.28;;
72284;SDS011;60220;53.552;10.092;2023-04-15T08:44:25;72.95;;;33.75;;
72284;SDS011;60220;53.552;10.092;2023-04-15T08:46:55;67.18;;;31.13;;
72284;SDS011;60220;53.552;10.092;2023-04-15T08:49:26;66.43;;;32.17;;
72284;SDS011;60220;53.552;10.092;2023-04-15T08:51:55;63.53;;;31.48;;
72284;SDS011;60220;53.552;10.092;2023-04-15T08:54:24;64.00;;;31.80;;
72284;SDS011;60220;53.552;10.092;2023-04-15T08:56:52;63.20;;;30.35;;
72284;SDS011;60220;53.552;10.092;2023-04-15T08:59:19;74.45;;;35.58;;
72284;SDS011;60220;53.552;10.092;2023-04-15T09:01:47;74.15;;;37.63;;
72284;SDS011;60220;53.552;10.092;2023-04-15T09:04:15;68.32;;;33.50;;
72284;SDS011;60220;53.552;10.092;2023-04-15T09:06:42;89.75;;;39.78;;
72284;SDS011;60220;53.552;10.092;2023-04-15T09:09:10;90.53;;;42.80;;
72284;SDS011;60220;53.552;10.092;2023-04-15T09:11:38;67.55;;;34.08;;
72284;SDS011;60220;53.552;10.092;2023-04-15T09:14:04;71.40;;;35.35;;
72284;SDS011;60220;53.552;10.092;2023-04-15T09:16:32;66.97;;;32.75;;
72284;SDS011;60220;53.552;10.092;2023-04-15T09:19:24;81.13;;;39.13;;
72284;SDS011;60220;53.552;10.092;2023-04-15T09:21:52;74.70;;;39.80;;
72284;SDS011;60220;53.552;10.092;2023-04-15T09:24:22;64.50;;;32.33;;
72284;SDS011;60220;53.552;10.092;2023-04-15T09:26:51;60.38;;;29.55;;
72284;SDS011;60220;53.552;10.092;2023-04-15T09:29:19;61.75;;;31.00;;
72284;SDS011;60220;53.552;10.092;2023-04-15T09:31:46;63.70;;;29.95;;
72284;SDS011;60220;53.552;10.092;2023-04-15T09:34:12;58.95;;;29.88;;
72284;SDS011;60220;53.552;10.092;2023-04-15T09:36:52;58.78;;;30.50;;
72284;SDS011;60220;53.552;10.092;2023-04-15T09:39:21;58.58;;;28.40;;
72284;SDS011;60220;53.552;10.092;2023-04-15T09:42:03;51.33;;;27.70;;
72284;SDS011;60220;53.552;10.092;2023-04-15T09:44:31;50.92;;;27.55;;
72284;SDS011;60220;53.552;10.092;2023-04-15T09:47:00;49.75;;;25.58;;
72284;SDS011;60220;53.552;10.092;2023-04-15T09:49:27;42.40;;;23.40;;
72284;SDS011;60220;53.552;10.092;2023-04-15T09:51:56;41.17;;;23.77;;
72284;SDS011;60220;53.552;10.092;2023-04-15T09:54:27;38.97;;;23.83;;
72284;SDS011;60220;53.552;10.092;2023-04-15T09:57:03;41.15;;;22.55;;
72284;SDS011;60220;53.552;10.092;2023-04-15T09:59:31;39.08;;;23.15;;
72284;SDS011;60220;53.552;10.092;2023-04-15T10:01:57;38.53;;;22.27;;
72284;SDS011;60220;53.552;10.092;2023-04-15T10:04:26;42.20;;;24.15;;
72284;SDS011;60220;53.552;10.092;2023-04-15T10:06:54;43.50;;;25.15;;
72284;SDS011;60220;53.552;10.092;2023-04-15T10:09:21;36.65;;;20.98;;
72284;SDS011;60220;53.552;10.092;2023-04-15T10:11:52;38.50;;;20.73;;
72284;SDS011;60220;53.552;10.092;2023-04-15T10:14:19;35.75;;;20.77;;
72284;SDS011;60220;53.552;10.092;2023-04-15T10:16:46;38.58;;;20.15;;
72284;SDS011;60220;53.552;10.092;2023-04-15T10:19:14;31.45;;;18.23;;
72284;SDS011;60220;53.552;10.092;2023-04-15T10:21:43;26.40;;;16.55;;
72284;SDS011;60220;53.552;10.092;2023-04-15T10:24:11;28.95;;;17.65;;
72284;SDS011;60220;53.552;10.092;2023-04-15T10:26:38;29.45;;;17.63;;
72284;SDS011;60220;53.552;10.092;2023-04-15T10:29:07;25.60;;;16.17;;
72284;SDS011;60220;53.552;10.092;2023-04-15T10:31:35;27.92;;;16.02;;
72284;SDS011;60220;53.552;10.092;2023-04-15T10:34:03;28.70;;;17.98;;
72284;SDS011;60220;53.552;10.092;2023-04-15T10:36:31;29.42;;;16.00;;
72284;SDS011;60220;53.552;10.092;2023-04-15T10:38:58;30.55;;;17.83;;
72284;SDS011;60220;53.552;10.092;2023-04-15T10:41:28;26.75;;;16.63;;
72284;SDS011;60220;53.552;10.092;2023-04-15T10:43:55;25.70;;;16.27;;
72284;SDS011;60220;53.552;10.092;2023-04-15T10:46:35;25.88;;;17.42;;
72284;SDS011;60220;53.552;10.092;2023-04-15T10:49:06;24.15;;;14.95;;
72284;SDS011;60220;53.552;10.092;2023-04-15T10:51:36;24.58;;;15.05;;
72284;SDS011;60220;53.552;10.092;2023-04-15T10:54:07;22.45;;;14.73;;
72284;SDS011;60220;53.552;10.092;2023-04-15T10:56:39;21.25;;;14.32;;
72284;SDS011;60220;53.552;10.092;2023-04-15T10:59:09;22.23;;;14.85;;
72284;SDS011;60220;53.552;10.092;2023-04-15T11:01:54;22.20;;;14.52;;
72284;SDS011;60220;53.552;10.092;2023-04-15T11:07:32;20.80;;;12.52;;
72284;SDS011;60220;53.552;10.092;2023-04-15T11:10:00;18.23;;;12.60;;
72284;SDS011;60220;53.552;10.092;2023-04-15T11:12:32;18.88;;;12.85;;
72284;SDS011;60220;53.552;10.092;2023-04-15T11:17:53;15.43;;;10.50;;
72284;SDS011;60220;53.552;10.092;2023-04-15T11:20:23;21.13;;;13.43;;
72284;SDS011;60220;53.552;10.092;2023-04-15T11:22:51;16.15;;;9.85;;
72284;SDS011;60220;53.552;10.092;2023-04-15T11:25:22;18.42;;;12.73;;
72284;SDS011;60220;53.552;10.092;2023-04-15T11:27:50;21.23;;;11.43;;
72284;SDS011;60220;53.552;10.092;2023-04-15T11:30:21;18.77;;;12.40;;
72284;SDS011;60220;53.552;10.092;2023-04-15T11:32:49;18.58;;;12.57;;
72284;SDS011;60220;53.552;10.092;2023-04-15T11:35:20;18.75;;;12.35;;
72284;SDS011;60220;53.552;10.092;2023-04-15T11:37:47;17.15;;;12.18;;
72284;SDS011;60220;53.552;10.092;2023-04-15T11:40:14;18.58;;;10.70;;
72284;SDS011;60220;53.552;10.092;2023-04-15T11:42:42;17.45;;;10.63;;
72284;SDS011;60220;53.552;10.092;2023-04-15T11:45:10;15.20;;;10.70;;
72284;SDS011;60220;53.552;10.092;2023-04-15T11:47:38;15.98;;;10.35;;
72284;SDS011;60220;53.552;10.092;2023-04-15T11:50:12;16.52;;;10.93;;
72284;SDS011;60220;53.552;10.092;2023-04-15T11:52:42;13.50;;;10.02;;
72284;SDS011;60220;53.552;10.092;2023-04-15T11:55:18;15.38;;;9.98;;
72284;SDS011;60220;53.552;10.092;2023-04-15T11:57:44;17.75;;;10.98;;
72284;SDS011;60220;53.552;10.092;2023-04-15T12:00:11;15.52;;;10.77;;
72284;SDS011;60220;53.552;10.092;2023-04-15T12:02:39;16.60;;;10.75;;
72284;SDS011;60220;53.552;10.092;2023-04-15T12:05:06;14.43;;;10.57;;
72284;SDS011;60220;53.552;10.092;2023-04-15T12:10:30;16.50;;;11.55;;
72284;SDS011;60220;53.552;10.092;2023-04-15T12:12:56;16.80;;;11.68;;
72284;SDS011;60220;53.552;10.092;2023-04-15T12:15:26;16.15;;;10.65;;
72284;SDS011;60220;53.552;10.092;2023-04-15T12:17:55;15.82;;;11.27;;
72284;SDS011;60220;53.552;10.092;2023-04-15T12:20:24;22.02;;;11.30;;
72284;SDS011;60220;53.552;10.092;2023-04-15T12:22:53;16.33;;;11.70;;
72284;SDS011;60220;53.552;10.092;2023-04-15T12:25:33;16.55;;;10.57;;
72284;SDS011;60220;53.552;10.092;2023-04-15T12:28:00;17.15;;;11.48;;
72284;SDS011;60220;53.552;10.092;2023-04-15T12:30:29;20.38;;;11.23;;
72284;SDS011;60220;53.552;10.092;2023-04-15T12:32:56;15.80;;;10.63;;
72284;SDS011;60220;53.552;10.092;2023-04-15T12:35:23;15.43;;;10.55;;
72284;SDS011;60220;53.552;10.092;2023-04-15T12:37:50;18.10;;;11.45;;
72284;SDS011;60220;53.552;10.092;2023-04-15T12:40:18;17.02;;;10.90;;
72284;SDS011;60220;53.552;10.092;2023-04-15T12:42:45;11.80;;;9.70;;
72284;SDS011;60220;53.552;10.092;2023-04-15T12:45:14;15.18;;;9.52;;
72284;SDS011;60220;53.552;10.092;2023-04-15T12:47:41;12.45;;;9.52;;
72284;SDS011;60220;53.552;10.092;2023-04-15T12:50:07;13.40;;;9.55;;
72284;SDS011;60220;53.552;10.092;2023-04-15T12:52:36;17.20;;;9.93;;
72284;SDS011;60220;53.552;10.092;2023-04-15T12:55:03;14.57;;;10.60;;
72284;SDS011;60220;53.552;10.092;2023-04-15T12:57:32;12.02;;;9.48;;
72284;SDS011;60220;53.552;10.092;2023-04-15T12:59:59;14.55;;;9.90;;
72284;SDS011;60220;53.552;10.092;2023-04-15T13:02:27;19.67;;;10.32;;
72284;SDS011;60220;53.552;10.092;2023-04-15T13:04:54;14.07;;;10.10;;
72284;SDS011;60220;53.552;10.092;2023-04-15T13:07:21;14.32;;;9.68;;
72284;SDS011;60220;53.552;10.092;2023-04-15T13:09:48;17.67;;;10.85;;
72284;SDS011;60220;53.552;10.092;2023-04-15T13:12:15;16.27;;;11.48;;
72284;SDS011;60220;53.552;10.092;2023-04-15T13:14:43;18.48;;;10.77;;
72284;SDS011;60220;53.552;10.092;2023-04-15T13:17:09;17.73;;;10.35;;
72284;SDS011;60220;53.552;10.092;2023-04-15T13:19:37;16.33;;;10.32;;
72284;SDS011;60220;53.552;10.092;2023-04-15T13:22:06;16.77;;;9.85;;
72284;SDS011;60220;53.552;10.092;2023-04-15T13:24:33;16.17;;;10.57;;
72284;SDS011;60220;53.552;10.092;2023-04-15T13:27:01;14.27;;;10.02;;
72284;SDS011;60220;53.552;10.092;2023-04-15T13:29:28;13.73;;;9.10;;
72284;SDS011;60220;53.552;10.092;2023-04-15T13:31:59;15.93;;;9.98;;
72284;SDS011;60220;53.552;10.092;2023-04-15T13:34:25;14.27;;;9.35;;
72284;SDS011;60220;53.552;10.092;2023-04-15T13:36:52;18.30;;;9.20;;
72284;SDS011;60220;53.552;10.092;2023-04-15T13:39:19;16.48;;;8.93;;
72284;SDS011;60220;53.552;10.092;2023-04-15T13:41:46;14.13;;;8.95;;
72284;SDS011;60220;53.552;10.092;2023-04-15T13:44:15;17.48;;;9.32;;
72284;SDS011;60220;53.552;10.092;2023-04-15T13:46:42;13.43;;;9.43;;
72284;SDS011;60220;53.552;10.092;2023-04-15T13:49:10;12.77;;;8.95;;
72284;SDS011;60220;53.552;10.092;2023-04-15T13:51:37;15.32;;;9.48;;
72284;SDS011;60220;53.552;10.092;2023-04-15T13:54:04;13.75;;;8.82;;
72284;SDS011;60220;53.552;10.092;2023-04-15T13:56:31;12.75;;;8.82;;
72284;SDS011;60220;53.552;10.092;2023-04-15T13:58:58;10.98;;;8.10;;
72284;SDS011;60220;53.552;10.092;2023-04-15T14:01:26;17.42;;;12.05;;
72284;SDS011;60220;53.552;10.092;2023-04-15T14:03:55;13.25;;;8.88;;
72284;SDS011;60220;53.552;10.092;2023-04-15T14:06:25;11.60;;;8.48;;
72284;SDS011;60220;53.552;10.092;2023-04-15T14:08:53;14.48;;;7.38;;
72284;SDS011;60220;53.552;10.092;2023-04-15T14:11:20;13.95;;;7.72;;
72284;SDS011;60220;53.552;10.092;2023-04-15T14:13:46;10.57;;;7.35;;
72284;SDS011;60220;53.552;10.092;2023-04-15T14:16:13;11.38;;;7.72;;
72284;SDS011;60220;53.552;10.092;2023-04-15T14:18:40;10.55;;;7.68;;
72284;SDS011;60220;53.552;10.092;2023-04-15T14:21:08;10.13;;;7.07;;
72284;SDS011;60220;53.552;10.092;2023-04-15T14:23:37;10.27;;;7.28;;
72284;SDS011;60220;53.552;10.092;2023-04-15T14:26:04;14.25;;;7.32;;
72284;SDS011;60220;53.552;10.092;2023-04-15T14:28:32;14.45;;;7.80;;